Aydlett, North Carolina
Current Conditions -  °F | °C
As of 3:35 PM on Friday 28 Nov 2014 (Local Time) from KONX Reporting Station
Clear Clear  
Wind Chill:   Ceiling: Unl
Heat Index:   Visibility: 10mi
Dew Point: -8°   Wind: 6mph
Humidity: 37%   Direction: 290°WNW
Pressure: 30.28"   Gusts: NA
Location:  36.33°N, 75.91°W
Report Text: KONX 282035Z AUTO 29005KT 10SM CLR 06/M08 A3028 RMK AO2 T00611077
Loading
Personal Weather Stations






























Interactive Weather Map New forecast layout! Learn more

10-Day Weather Forecast

Advertisements
Track Severe Weather on mobile